Terminal Aerodrome Forecast
Issued by NWS

Home | Current Version | Previous Version | Text Only | Print | Product List | Glossary On
Versions: 1 2 3 4 5 6 7 8 9 10 11 12 13 14 15
000
FTUS46 KPDT 271700
TAFALW
TAF
KALW 271720Z 2718/2818 VRB06KT P6SM SKC
     FM280000 26008KT P6SM BKN090 BKN120
     FM280300 26012G24KT P6SM VCSH SCT040 BKN060 OVC100
     FM280700 23020G30KT P6SM -SHRA BKN025 OVC060
     FM281300 23016G26KT P6SM BKN040 BKN100=

USA.gov is the U.S. government's official web portal to all federal, state and local government web resources and services.